KADS/ADS METAR and TAF weather

Enter ICAO airport designator
Station Type Date Time Source
KADS METAR 2022/12/04 04:15 UTC NOAA

KADS 040415Z AUTO 06004KT 10SM OVC029 09/M04 A3040 RMK AO2 T00921038


Station Type Date Time Source
KADS Decoded METAR 2022/12/04 04:15 UTC NOAA

Dallas / Addison Airport, TX, United States (KADS) 32-58N 096-50W
Dec 03, 2022 - 11:15 PM EST / 2022.12.04 0415 UTC
Wind: from the ENE (060 degrees) at 5 MPH (4 KT):0
Visibility: 10 mile(s):0
Sky conditions: overcast
Temperature: 48.6 F (9.2 C)
Dew Point: 25.2 F (-3.8 C)
Relative Humidity: 39%
Pressure (altimeter): 30.4 in. Hg (1029 hPa)
ob: KADS 040415Z AUTO 06004KT 10SM OVC029 09/M04 A3040 RMK AO2 T00921038
cycle: 4

Station Type Date Time Source
KADS TAF UTC NOAA

Error!

Example: see airport list